sensor_id;sensor_type;location;lat;lon;timestamp;pressure;altitude;pressure_sealevel;temperature
67515;BMP280;60646;55.802;37.032;2023-10-09T00:00:17;97233.84;;;7.23
67515;BMP280;60646;55.802;37.032;2023-10-09T00:03:18;97224.28;;;7.07
67515;BMP280;60646;55.802;37.032;2023-10-09T00:05:44;97229.41;;;7.05
67515;BMP280;60646;55.802;37.032;2023-10-09T00:08:10;97231.53;;;7.07
67515;BMP280;60646;55.802;37.032;2023-10-09T00:10:43;97233.66;;;7.08
67515;BMP280;60646;55.802;37.032;2023-10-09T00:13:20;97267.84;;;7.25
67515;BMP280;60646;55.802;37.032;2023-10-09T00:15:52;97235.03;;;7.02
67515;BMP280;60646;55.802;37.032;2023-10-09T00:18:19;97261.31;;;7.13
67515;BMP280;60646;55.802;37.032;2023-10-09T00:20:54;97252.88;;;7.01
67515;BMP280;60646;55.802;37.032;2023-10-09T00:23:21;97277.13;;;7.18
67515;BMP280;60646;55.802;37.032;2023-10-09T00:25:52;97287.34;;;7.28
67515;BMP280;60646;55.802;37.032;2023-10-09T00:28:48;97263.91;;;7.05
67515;BMP280;60646;55.802;37.032;2023-10-09T00:31:18;97272.25;;;7.09
67515;BMP280;60646;55.802;37.032;2023-10-09T00:33:56;97273.47;;;7.08
67515;BMP280;60646;55.802;37.032;2023-10-09T00:36:23;97280.22;;;7.09
67515;BMP280;60646;55.802;37.032;2023-10-09T00:38:54;97310.00;;;7.29
67515;BMP280;60646;55.802;37.032;2023-10-09T00:41:20;97320.63;;;7.29
67515;BMP280;60646;55.802;37.032;2023-10-09T00:43:52;97317.44;;;7.30
67515;BMP280;60646;55.802;37.032;2023-10-09T00:46:20;97323.47;;;7.31
67515;BMP280;60646;55.802;37.032;2023-10-09T00:48:48;97307.53;;;7.17
67515;BMP280;60646;55.802;37.032;2023-10-09T00:51:16;97311.97;;;7.15
67515;BMP280;60646;55.802;37.032;2023-10-09T00:53:48;97330.19;;;7.32
67515;BMP280;60646;55.802;37.032;2023-10-09T00:56:21;97334.09;;;7.31
67515;BMP280;60646;55.802;37.032;2023-10-09T00:59:04;97334.09;;;7.31
67515;BMP280;60646;55.802;37.032;2023-10-09T01:01:42;97320.16;;;7.17
67515;BMP280;60646;55.802;37.032;2023-10-09T01:04:23;97329.72;;;7.20
67515;BMP280;60646;55.802;37.032;2023-10-09T01:06:51;97304.19;;;7.04
67515;BMP280;60646;55.802;37.032;2023-10-09T01:09:34;97319.44;;;7.16
67515;BMP280;60646;55.802;37.032;2023-10-09T01:12:04;97347.56;;;7.33
67515;BMP280;60646;55.802;37.032;2023-10-09T01:14:30;97318.78;;;7.10
67515;BMP280;60646;55.802;37.032;2023-10-09T01:17:03;97341.38;;;7.17
67515;BMP280;60646;55.802;37.032;2023-10-09T01:19:34;97345.31;;;7.23
67515;BMP280;60646;55.802;37.032;2023-10-09T01:22:00;97347.97;;;7.23
67515;BMP280;60646;55.802;37.032;2023-10-09T01:24:31;97349.41;;;7.24
67515;BMP280;60646;55.802;37.032;2023-10-09T01:27:01;97344.69;;;7.17
67515;BMP280;60646;55.802;37.032;2023-10-09T01:29:30;97379.34;;;7.38
67515;BMP280;60646;55.802;37.032;2023-10-09T01:31:56;97384.84;;;7.40
67515;BMP280;60646;55.802;37.032;2023-10-09T01:34:28;97346.69;;;7.17
67515;BMP280;60646;55.802;37.032;2023-10-09T01:37:11;97393.72;;;7.43
67515;BMP280;60646;55.802;37.032;2023-10-09T01:39:56;97389.00;;;7.36
67515;BMP280;60646;55.802;37.032;2023-10-09T01:42:45;97366.66;;;7.18
67515;BMP280;60646;55.802;37.032;2023-10-09T01:45:12;97400.06;;;7.40
67515;BMP280;60646;55.802;37.032;2023-10-09T01:47:40;97371.06;;;7.15
67515;BMP280;60646;55.802;37.032;2023-10-09T01:50:07;97426.28;;;7.43
67515;BMP280;60646;55.802;37.032;2023-10-09T01:52:59;97418.03;;;7.34
67515;BMP280;60646;55.802;37.032;2023-10-09T01:55:29;97423.63;;;7.30
67515;BMP280;60646;55.802;37.032;2023-10-09T01:57:58;97402.00;;;7.26
67515;BMP280;60646;55.802;37.032;2023-10-09T02:00:34;97426.63;;;7.40
67515;BMP280;60646;55.802;37.032;2023-10-09T02:03:08;97448.16;;;7.49
67515;BMP280;60646;55.802;37.032;2023-10-09T02:05:38;97417.59;;;7.30
67515;BMP280;60646;55.802;37.032;2023-10-09T02:08:05;97427.19;;;7.33
67515;BMP280;60646;55.802;37.032;2023-10-09T02:10:32;97413.13;;;7.38
67515;BMP280;60646;55.802;37.032;2023-10-09T02:13:05;97444.88;;;7.56
67515;BMP280;60646;55.802;37.032;2023-10-09T02:15:43;97456.94;;;7.57
67515;BMP280;60646;55.802;37.032;2023-10-09T02:18:15;97432.72;;;7.48
67515;BMP280;60646;55.802;37.032;2023-10-09T02:20:53;97455.19;;;7.60
67515;BMP280;60646;55.802;37.032;2023-10-09T02:23:41;97423.75;;;7.38
67515;BMP280;60646;55.802;37.032;2023-10-09T02:26:18;97438.34;;;7.44
67515;BMP280;60646;55.802;37.032;2023-10-09T02:28:49;97453.97;;;7.48
67515;BMP280;60646;55.802;37.032;2023-10-09T02:31:25;97453.97;;;7.48
67515;BMP280;60646;55.802;37.032;2023-10-09T02:33:54;97442.63;;;7.34
67515;BMP280;60646;55.802;37.032;2023-10-09T02:36:24;97492.78;;;7.64
67515;BMP280;60646;55.802;37.032;2023-10-09T02:38:50;97475.41;;;7.50
67515;BMP280;60646;55.802;37.032;2023-10-09T02:41:19;97459.91;;;7.41
67515;BMP280;60646;55.802;37.032;2023-10-09T02:43:56;97494.84;;;7.58
67515;BMP280;60646;55.802;37.032;2023-10-09T02:46:22;97495.03;;;7.60
67515;BMP280;60646;55.802;37.032;2023-10-09T02:48:58;97498.72;;;7.57
67515;BMP280;60646;55.802;37.032;2023-10-09T02:51:26;97526.50;;;7.69
67515;BMP280;60646;55.802;37.032;2023-10-09T02:53:53;97502.88;;;7.52
67515;BMP280;60646;55.802;37.032;2023-10-09T02:56:20;97515.25;;;7.63
67515;BMP280;60646;55.802;37.032;2023-10-09T02:59:24;97533.84;;;7.63
67515;BMP280;60646;55.802;37.032;2023-10-09T03:01:50;97536.09;;;7.72
67515;BMP280;60646;55.802;37.032;2023-10-09T03:04:19;97534.16;;;7.59
67515;BMP280;60646;55.802;37.032;2023-10-09T03:06:46;97526.25;;;7.54
67515;BMP280;60646;55.802;37.032;2023-10-09T03:09:23;97539.47;;;7.59
67515;BMP280;60646;55.802;37.032;2023-10-09T03:11:55;97553.47;;;7.73
67515;BMP280;60646;55.802;37.032;2023-10-09T03:14:44;97562.16;;;7.73
67515;BMP280;60646;55.802;37.032;2023-10-09T03:17:10;97534.06;;;7.52
67515;BMP280;60646;55.802;37.032;2023-10-09T03:19:39;97542.72;;;7.52
67515;BMP280;60646;55.802;37.032;2023-10-09T03:22:06;97571.59;;;7.74
67515;BMP280;60646;55.802;37.032;2023-10-09T03:24:38;97574.94;;;7.75
67515;BMP280;60646;55.802;37.032;2023-10-09T03:27:04;97584.16;;;7.74
67515;BMP280;60646;55.802;37.032;2023-10-09T03:29:31;97586.81;;;7.74
67515;BMP280;60646;55.802;37.032;2023-10-09T03:31:56;97575.75;;;7.70
67515;BMP280;60646;55.802;37.032;2023-10-09T03:34:23;97581.25;;;7.72
67515;BMP280;60646;55.802;37.032;2023-10-09T03:36:49;97569.22;;;7.58
67515;BMP280;60646;55.802;37.032;2023-10-09T03:39:25;97549.16;;;7.44
67515;BMP280;60646;55.802;37.032;2023-10-09T03:42:04;97585.56;;;7.62
67515;BMP280;60646;55.802;37.032;2023-10-09T03:44:31;97576.72;;;7.54
67515;BMP280;60646;55.802;37.032;2023-10-09T03:46:59;97566.22;;;7.48
67515;BMP280;60646;55.802;37.032;2023-10-09T03:49:46;97593.94;;;7.66
67515;BMP280;60646;55.802;37.032;2023-10-09T03:52:11;97593.31;;;7.60
67515;BMP280;60646;55.802;37.032;2023-10-09T03:54:42;97602.22;;;7.62
67515;BMP280;60646;55.802;37.032;2023-10-09T03:57:10;97596.03;;;7.54
67515;BMP280;60646;55.802;37.032;2023-10-09T03:59:35;97612.22;;;7.69
67515;BMP280;60646;55.802;37.032;2023-10-09T04:02:03;97600.06;;;7.61
67515;BMP280;60646;55.802;37.032;2023-10-09T04:04:30;97618.97;;;7.70
67515;BMP280;60646;55.802;37.032;2023-10-09T04:06:58;97593.50;;;7.49
67515;BMP280;60646;55.802;37.032;2023-10-09T04:09:24;97610.25;;;7.57
67515;BMP280;60646;55.802;37.032;2023-10-09T04:11:51;97611.06;;;7.52
67515;BMP280;60646;55.802;37.032;2023-10-09T04:14:40;97638.03;;;7.56
67515;BMP280;60646;55.802;37.032;2023-10-09T04:17:26;97630.88;;;7.51
67515;BMP280;60646;55.802;37.032;2023-10-09T04:19:55;97633.13;;;7.47
67515;BMP280;60646;55.802;37.032;2023-10-09T04:22:40;97639.16;;;7.47
67515;BMP280;60646;55.802;37.032;2023-10-09T04:25:19;97639.88;;;7.48
67515;BMP280;60646;55.802;37.032;2023-10-09T04:31:17;97649.34;;;7.43
67515;BMP280;60646;55.802;37.032;2023-10-09T04:33:48;97657.94;;;7.49
67515;BMP280;60646;55.802;37.032;2023-10-09T04:36:20;97660.81;;;7.51
67515;BMP280;60646;55.802;37.032;2023-10-09T04:38:47;97627.13;;;7.28
67515;BMP280;60646;55.802;37.032;2023-10-09T04:41:45;97668.25;;;7.53
67515;BMP280;60646;55.802;37.032;2023-10-09T04:44:11;97660.69;;;7.44
67515;BMP280;60646;55.802;37.032;2023-10-09T04:46:55;97671.94;;;7.50
67515;BMP280;60646;55.802;37.032;2023-10-09T04:49:37;97682.78;;;7.52
67515;BMP280;60646;55.802;37.032;2023-10-09T04:52:30;97672.03;;;7.44
67515;BMP280;60646;55.802;37.032;2023-10-09T04:54:59;97700.38;;;7.68
67515;BMP280;60646;55.802;37.032;2023-10-09T04:57:36;97705.28;;;7.64
67515;BMP280;60646;55.802;37.032;2023-10-09T05:02:51;97718.50;;;7.69
67515;BMP280;60646;55.802;37.032;2023-10-09T05:05:21;97702.94;;;7.60
67515;BMP280;60646;55.802;37.032;2023-10-09T05:08:17;97712.75;;;7.65
67515;BMP280;60646;55.802;37.032;2023-10-09T05:10:51;97717.13;;;7.63
67515;BMP280;60646;55.802;37.032;2023-10-09T05:13:41;97700.13;;;7.53
67515;BMP280;60646;55.802;37.032;2023-10-09T05:16:15;97715.91;;;7.64
67515;BMP280;60646;55.802;37.032;2023-10-09T05:18:46;97736.72;;;7.78
67515;BMP280;60646;55.802;37.032;2023-10-09T05:24:11;97747.03;;;7.82
67515;BMP280;60646;55.802;37.032;2023-10-09T05:26:39;97750.91;;;7.81
67515;BMP280;60646;55.802;37.032;2023-10-09T05:29:19;97751.16;;;7.83
67515;BMP280;60646;55.802;37.032;2023-10-09T05:31:50;97722.25;;;7.61
67515;BMP280;60646;55.802;37.032;2023-10-09T05:34:23;97739.75;;;7.69
67515;BMP280;60646;55.802;37.032;2023-10-09T05:37:08;97733.94;;;7.71
67515;BMP280;60646;55.802;37.032;2023-10-09T05:39:46;97738.00;;;7.72
67515;BMP280;60646;55.802;37.032;2023-10-09T05:42:34;97770.56;;;7.91
67515;BMP280;60646;55.802;37.032;2023-10-09T05:45:04;97758.47;;;7.77
67515;BMP280;60646;55.802;37.032;2023-10-09T05:47:36;97747.94;;;7.71
67515;BMP280;60646;55.802;37.032;2023-10-09T05:50:04;97781.63;;;7.95
67515;BMP280;60646;55.802;37.032;2023-10-09T05:52:33;97770.03;;;7.79
67515;BMP280;60646;55.802;37.032;2023-10-09T05:55:08;97792.66;;;7.99
67515;BMP280;60646;55.802;37.032;2023-10-09T05:57:53;97785.88;;;7.85
67515;BMP280;60646;55.802;37.032;2023-10-09T06:00:23;97784.53;;;7.78
67515;BMP280;60646;55.802;37.032;2023-10-09T06:03:07;97807.06;;;7.91
67515;BMP280;60646;55.802;37.032;2023-10-09T06:05:54;97812.31;;;7.96
67515;BMP280;60646;55.802;37.032;2023-10-09T06:08:24;97834.22;;;8.02
67515;BMP280;60646;55.802;37.032;2023-10-09T06:10:53;97840.50;;;7.99
67515;BMP280;60646;55.802;37.032;2023-10-09T06:13:32;97843.03;;;8.10
67515;BMP280;60646;55.802;37.032;2023-10-09T06:16:05;97805.91;;;7.86
67515;BMP280;60646;55.802;37.032;2023-10-09T06:18:57;97834.22;;;8.02
67515;BMP280;60646;55.802;37.032;2023-10-09T06:21:55;97840.94;;;8.03
67515;BMP280;60646;55.802;37.032;2023-10-09T06:24:24;97829.47;;;7.95
67515;BMP280;60646;55.802;37.032;2023-10-09T06:26:54;97844.84;;;8.02
67515;BMP280;60646;55.802;37.032;2023-10-09T06:29:26;97854.88;;;8.09
67515;BMP280;60646;55.802;37.032;2023-10-09T06:32:18;97862.91;;;8.22
67515;BMP280;60646;55.802;37.032;2023-10-09T06:34:49;97869.91;;;8.25
67515;BMP280;60646;55.802;37.032;2023-10-09T06:37:19;97855.53;;;8.15
67515;BMP280;60646;55.802;37.032;2023-10-09T06:39:55;97843.53;;;8.09
67515;BMP280;60646;55.802;37.032;2023-10-09T06:42:22;97854.09;;;8.14
67515;BMP280;60646;55.802;37.032;2023-10-09T06:45:04;97881.56;;;8.36
67515;BMP280;60646;55.802;37.032;2023-10-09T06:47:33;97878.19;;;8.35
67515;BMP280;60646;55.802;37.032;2023-10-09T06:50:12;97877.66;;;8.23
67515;BMP280;60646;55.802;37.032;2023-10-09T06:52:49;97856.88;;;8.22
67515;BMP280;60646;55.802;37.032;2023-10-09T06:55:42;97903.72;;;8.44
67515;BMP280;60646;55.802;37.032;2023-10-09T06:58:19;97899.81;;;8.45
67515;BMP280;60646;55.802;37.032;2023-10-09T07:00:56;97866.34;;;8.17
67515;BMP280;60646;55.802;37.032;2023-10-09T07:03:28;97884.81;;;8.28
67515;BMP280;60646;55.802;37.032;2023-10-09T07:06:19;97887.91;;;8.32
67515;BMP280;60646;55.802;37.032;2023-10-09T07:09:02;97916.63;;;8.53
67515;BMP280;60646;55.802;37.032;2023-10-09T07:11:36;97924.81;;;8.55
67515;BMP280;60646;55.802;37.032;2023-10-09T07:14:17;97914.34;;;8.44
67515;BMP280;60646;55.802;37.032;2023-10-09T07:17:08;97913.91;;;8.40
67515;BMP280;60646;55.802;37.032;2023-10-09T07:19:54;97938.03;;;8.60
67515;BMP280;60646;55.802;37.032;2023-10-09T07:22:40;97926.16;;;8.48
67515;BMP280;60646;55.802;37.032;2023-10-09T07:25:29;97930.13;;;8.55
67515;BMP280;60646;55.802;37.032;2023-10-09T07:28:14;97943.50;;;8.68
67515;BMP280;60646;55.802;37.032;2023-10-09T07:31:06;97935.06;;;8.64
67515;BMP280;60646;55.802;37.032;2023-10-09T07:33:51;97954.97;;;8.76
67515;BMP280;60646;55.802;37.032;2023-10-09T07:36:24;97938.16;;;8.68
67515;BMP280;60646;55.802;37.032;2023-10-09T07:39:04;97963.28;;;8.85
67515;BMP280;60646;55.802;37.032;2023-10-09T07:41:41;97966.88;;;8.88
67515;BMP280;60646;55.802;37.032;2023-10-09T07:44:21;97957.25;;;8.85
67515;BMP280;60646;55.802;37.032;2023-10-09T07:47:05;97979.81;;;8.97
67515;BMP280;60646;55.802;37.032;2023-10-09T07:49:47;97953.34;;;8.86
67515;BMP280;60646;55.802;37.032;2023-10-09T07:52:20;97988.41;;;9.03
67515;BMP280;60646;55.802;37.032;2023-10-09T07:54:48;97953.34;;;8.86
67515;BMP280;60646;55.802;37.032;2023-10-09T07:57:20;97994.59;;;9.11
67515;BMP280;60646;55.802;37.032;2023-10-09T07:59:52;97983.09;;;9.03
67515;BMP280;60646;55.802;37.032;2023-10-09T08:02:30;97983.31;;;9.05
67515;BMP280;60646;55.802;37.032;2023-10-09T08:05:01;97987.81;;;9.10
67515;BMP280;60646;55.802;37.032;2023-10-09T08:07:31;97968.13;;;9.00
67515;BMP280;60646;55.802;37.032;2023-10-09T08:10:04;97995.41;;;9.19
67515;BMP280;60646;55.802;37.032;2023-10-09T08:12:46;98009.06;;;9.29
67515;BMP280;60646;55.802;37.032;2023-10-09T08:15:18;98018.19;;;9.33
67515;BMP280;60646;55.802;37.032;2023-10-09T08:17:55;98039.91;;;9.37
67515;BMP280;60646;55.802;37.032;2023-10-09T08:20:30;98031.63;;;9.41
67515;BMP280;60646;55.802;37.032;2023-10-09T08:23:22;98023.72;;;9.49
67515;BMP280;60646;55.802;37.032;2023-10-09T08:26:18;98024.97;;;9.48
67515;BMP280;60646;55.802;37.032;2023-10-09T08:28:58;98019.91;;;9.44
67515;BMP280;60646;55.802;37.032;2023-10-09T08:31:56;98025.38;;;9.52
67515;BMP280;60646;55.802;37.032;2023-10-09T08:34:44;98031.94;;;9.51
67515;BMP280;60646;55.802;37.032;2023-10-09T08:37:14;98050.25;;;9.54
67515;BMP280;60646;55.802;37.032;2023-10-09T08:39:40;98027.41;;;9.46
67515;BMP280;60646;55.802;37.032;2023-10-09T08:42:10;98030.28;;;9.48
67515;BMP280;60646;55.802;37.032;2023-10-09T08:44:42;98062.47;;;9.63
67515;BMP280;60646;55.802;37.032;2023-10-09T08:47:10;98042.81;;;9.53
67515;BMP280;60646;55.802;37.032;2023-10-09T08:49:38;98067.00;;;9.68
67515;BMP280;60646;55.802;37.032;2023-10-09T08:52:05;98070.28;;;9.61
67515;BMP280;60646;55.802;37.032;2023-10-09T08:54:32;98063.63;;;9.67
67515;BMP280;60646;55.802;37.032;2023-10-09T08:57:04;98076.84;;;9.73
67515;BMP280;60646;55.802;37.032;2023-10-09T08:59:40;98075.38;;;9.72
67515;BMP280;60646;55.802;37.032;2023-10-09T09:02:09;98062.69;;;9.65
67515;BMP280;60646;55.802;37.032;2023-10-09T09:04:43;98067.53;;;9.66
67515;BMP280;60646;55.802;37.032;2023-10-09T09:07:30;98081.75;;;9.82
67515;BMP280;60646;55.802;37.032;2023-10-09T09:10:01;98072.94;;;9.74
67515;BMP280;60646;55.802;37.032;2023-10-09T09:12:48;98091.94;;;9.83
67515;BMP280;60646;55.802;37.032;2023-10-09T09:15:35;98070.38;;;9.68
67515;BMP280;60646;55.802;37.032;2023-10-09T09:18:07;98094.50;;;9.89
67515;BMP280;60646;55.802;37.032;2023-10-09T09:20:40;98069.34;;;9.71
67515;BMP280;60646;55.802;37.032;2023-10-09T09:23:25;98084.03;;;9.78
67515;BMP280;60646;55.802;37.032;2023-10-09T09:26:06;98106.09;;;9.91
67515;BMP280;60646;55.802;37.032;2023-10-09T09:28:51;98096.75;;;9.98
67515;BMP280;60646;55.802;37.032;2023-10-09T09:31:21;98074.41;;;9.75
67515;BMP280;60646;55.802;37.032;2023-10-09T09:33:56;98085.25;;;9.90
67515;BMP280;60646;55.802;37.032;2023-10-09T09:36:24;98099.84;;;9.89
67515;BMP280;60646;55.802;37.032;2023-10-09T09:38:58;98115.50;;;10.06
67515;BMP280;60646;55.802;37.032;2023-10-09T09:41:27;98109.06;;;10.01
67515;BMP280;60646;55.802;37.032;2023-10-09T09:43:59;98126.50;;;10.15
67515;BMP280;60646;55.802;37.032;2023-10-09T09:46:37;98102.09;;;9.98
67515;BMP280;60646;55.802;37.032;2023-10-09T09:49:06;98126.81;;;10.12
67515;BMP280;60646;55.802;37.032;2023-10-09T09:51:48;98125.97;;;10.17
67515;BMP280;60646;55.802;37.032;2023-10-09T09:54:33;98125.47;;;10.18
67515;BMP280;60646;55.802;37.032;2023-10-09T09:57:03;98119.31;;;10.10
67515;BMP280;60646;55.802;37.032;2023-10-09T09:59:40;98137.66;;;10.27
67515;BMP280;60646;55.802;37.032;2023-10-09T10:02:12;98140.00;;;10.30
67515;BMP280;60646;55.802;37.032;2023-10-09T10:04:47;98137.34;;;10.30
67515;BMP280;60646;55.802;37.032;2023-10-09T10:07:21;98119.72;;;10.27
67515;BMP280;60646;55.802;37.032;2023-10-09T10:09:56;98122.63;;;10.29
67515;BMP280;60646;55.802;37.032;2023-10-09T10:12:50;98135.78;;;10.48
67515;BMP280;60646;55.802;37.032;2023-10-09T10:16:00;98155.03;;;10.46
67515;BMP280;60646;55.802;37.032;2023-10-09T10:18:33;98150.38;;;10.47
67515;BMP280;60646;55.802;37.032;2023-10-09T10:27:15;98132.00;;;10.30
67515;BMP280;60646;55.802;37.032;2023-10-09T10:32:58;98164.34;;;10.53
67515;BMP280;60646;55.802;37.032;2023-10-09T10:35:38;98136.66;;;10.30
67515;BMP280;60646;55.802;37.032;2023-10-09T10:38:36;98170.41;;;10.53
67515;BMP280;60646;55.802;37.032;2023-10-09T10:41:17;98160.06;;;10.37
67515;BMP280;60646;55.802;37.032;2023-10-09T10:43:47;98180.56;;;10.42
67515;BMP280;60646;55.802;37.032;2023-10-09T10:46:28;98190.13;;;10.37
67515;BMP280;60646;55.802;37.032;2023-10-09T10:49:06;98179.22;;;10.22
67515;BMP280;60646;55.802;37.032;2023-10-09T10:51:43;98178.72;;;10.11
67515;BMP280;60646;55.802;37.032;2023-10-09T10:54:49;98198.72;;;10.17
67515;BMP280;60646;55.802;37.032;2023-10-09T10:57:52;98183.94;;;10.03
67515;BMP280;60646;55.802;37.032;2023-10-09T11:00:51;98187.00;;;9.94
67515;BMP280;60646;55.802;37.032;2023-10-09T11:03:24;98219.03;;;10.07
67515;BMP280;60646;55.802;37.032;2023-10-09T11:06:29;98196.44;;;9.95
67515;BMP280;60646;55.802;37.032;2023-10-09T11:09:08;98225.41;;;10.04
67515;BMP280;60646;55.802;37.032;2023-10-09T11:11:50;98224.19;;;10.05
67515;BMP280;60646;55.802;37.032;2023-10-09T11:14:26;98186.78;;;9.79
67515;BMP280;60646;55.802;37.032;2023-10-09T11:16:55;98205.03;;;9.88
67515;BMP280;60646;55.802;37.032;2023-10-09T11:19:29;98190.03;;;9.72
67515;BMP280;60646;55.802;37.032;2023-10-09T11:22:09;98215.31;;;9.84
67515;BMP280;60646;55.802;37.032;2023-10-09T11:24:35;98218.91;;;9.86
67515;BMP280;60646;55.802;37.032;2023-10-09T11:27:06;98241.19;;;10.02
67515;BMP280;60646;55.802;37.032;2023-10-09T11:29:49;98248.69;;;10.04
67515;BMP280;60646;55.802;37.032;2023-10-09T11:32:21;98244.66;;;9.97
67515;BMP280;60646;55.802;37.032;2023-10-09T11:35:16;98247.94;;;10.03
67515;BMP280;60646;55.802;37.032;2023-10-09T11:37:56;98227.69;;;9.81
67515;BMP280;60646;55.802;37.032;2023-10-09T11:40:32;98241.34;;;9.91
67515;BMP280;60646;55.802;37.032;2023-10-09T11:43:55;98253.25;;;9.90
67515;BMP280;60646;55.802;37.032;2023-10-09T11:46:24;98258.81;;;9.92
67515;BMP280;60646;55.802;37.032;2023-10-09T11:49:08;98251.63;;;9.87
67515;BMP280;60646;55.802;37.032;2023-10-09T11:52:13;98260.03;;;9.91
67515;BMP280;60646;55.802;37.032;2023-10-09T11:55:08;98262.69;;;9.91
67515;BMP280;60646;55.802;37.032;2023-10-09T11:57:45;98260.84;;;9.86
67515;BMP280;60646;55.802;37.032;2023-10-09T12:00:31;98257.69;;;9.87
67515;BMP280;60646;55.802;37.032;2023-10-09T12:03:36;98290.88;;;10.05
67515;BMP280;60646;55.802;37.032;2023-10-09T12:06:03;98267.19;;;9.83
67515;BMP280;60646;55.802;37.032;2023-10-09T12:08:39;98295.28;;;10.03
67515;BMP280;60646;55.802;37.032;2023-10-09T12:11:16;98300.50;;;10.08
67515;BMP280;60646;55.802;37.032;2023-10-09T12:13:57;98282.00;;;9.97
67515;BMP280;60646;55.802;37.032;2023-10-09T12:16:27;98299.28;;;10.09
67515;BMP280;60646;55.802;37.032;2023-10-09T12:19:00;98287.75;;;10.01
67515;BMP280;60646;55.802;37.032;2023-10-09T12:21:39;98285.59;;;9.99
67515;BMP280;60646;55.802;37.032;2023-10-09T12:24:13;98282.19;;;9.99
67515;BMP280;60646;55.802;37.032;2023-10-09T12:26:45;98293.81;;;10.02
67515;BMP280;60646;55.802;37.032;2023-10-09T12:29:25;98308.91;;;10.12
67515;BMP280;60646;55.802;37.032;2023-10-09T12:32:03;98300.09;;;10.04
67515;BMP280;60646;55.802;37.032;2023-10-09T12:34:37;98291.66;;;10.00
67515;BMP280;60646;55.802;37.032;2023-10-09T12:37:07;98304.19;;;10.05
67515;BMP280;60646;55.802;37.032;2023-10-09T12:39:36;98308.09;;;10.04
67515;BMP280;60646;55.802;37.032;2023-10-09T12:42:07;98304.50;;;10.02
67515;BMP280;60646;55.802;37.032;2023-10-09T12:44:35;98303.75;;;10.01
67515;BMP280;60646;55.802;37.032;2023-10-09T12:47:21;98307.63;;;9.87
67515;BMP280;60646;55.802;37.032;2023-10-09T12:49:50;98322.19;;;9.99
67515;BMP280;60646;55.802;37.032;2023-10-09T12:52:19;98316.97;;;9.93
67515;BMP280;60646;55.802;37.032;2023-10-09T12:54:45;98280.50;;;9.70
67515;BMP280;60646;55.802;37.032;2023-10-09T12:57:32;98339.78;;;10.08
67515;BMP280;60646;55.802;37.032;2023-10-09T12:59:58;98330.94;;;9.99
67515;BMP280;60646;55.802;37.032;2023-10-09T13:02:23;98328.06;;;9.97
67515;BMP280;60646;55.802;37.032;2023-10-09T13:04:56;98351.16;;;10.08
67515;BMP280;60646;55.802;37.032;2023-10-09T13:07:22;98340.63;;;10.03
67515;BMP280;60646;55.802;37.032;2023-10-09T13:09:48;98329.16;;;9.89
67515;BMP280;60646;55.802;37.032;2023-10-09T13:12:35;98358.25;;;10.06
67515;BMP280;60646;55.802;37.032;2023-10-09T13:15:10;98357.75;;;10.07
67515;BMP280;60646;55.802;37.032;2023-10-09T13:17:38;98365.75;;;10.07
67515;BMP280;60646;55.802;37.032;2023-10-09T13:20:05;98337.81;;;9.76
67515;BMP280;60646;55.802;37.032;2023-10-09T13:22:41;98345.72;;;9.82
67515;BMP280;60646;55.802;37.032;2023-10-09T13:25:08;98364.34;;;9.87
67515;BMP280;60646;55.802;37.032;2023-10-09T13:27:42;98351.88;;;9.77
67515;BMP280;60646;55.802;37.032;2023-10-09T13:30:19;98369.25;;;9.83
67515;BMP280;60646;55.802;37.032;2023-10-09T13:32:50;98365.63;;;9.81
67515;BMP280;60646;55.802;37.032;2023-10-09T13:35:19;98378.94;;;9.81
67515;BMP280;60646;55.802;37.032;2023-10-09T13:37:45;98363.31;;;9.72
67515;BMP280;60646;55.802;37.032;2023-10-09T13:40:21;98396.34;;;9.87
67515;BMP280;60646;55.802;37.032;2023-10-09T13:42:56;98402.38;;;9.88
67515;BMP280;60646;55.802;37.032;2023-10-09T13:45:28;98401.69;;;9.87
67515;BMP280;60646;55.802;37.032;2023-10-09T13:48:19;98409.59;;;9.93
67515;BMP280;60646;55.802;37.032;2023-10-09T13:50:51;98381.06;;;9.69
67515;BMP280;60646;55.802;37.032;2023-10-09T13:53:26;98409.31;;;9.78
67515;BMP280;60646;55.802;37.032;2023-10-09T13:55:53;98419.63;;;9.87
67515;BMP280;60646;55.802;37.032;2023-10-09T13:58:52;98424.63;;;9.90
67515;BMP280;60646;55.802;37.032;2023-10-09T14:01:21;98432.94;;;9.87
67515;BMP280;60646;55.802;37.032;2023-10-09T14:03:58;98430.84;;;9.80
67515;BMP280;60646;55.802;37.032;2023-10-09T14:06:29;98410.31;;;9.75
67515;BMP280;60646;55.802;37.032;2023-10-09T14:09:03;98411.53;;;9.74
67515;BMP280;60646;55.802;37.032;2023-10-09T14:11:38;98403.84;;;9.70
67515;BMP280;60646;55.802;37.032;2023-10-09T14:14:08;98420.25;;;9.74
67515;BMP280;60646;55.802;37.032;2023-10-09T14:16:36;98413.78;;;9.70
67515;BMP280;60646;55.802;37.032;2023-10-09T14:19:03;98424.59;;;9.77
67515;BMP280;60646;55.802;37.032;2023-10-09T14:21:34;98446.06;;;9.85
67515;BMP280;60646;55.802;37.032;2023-10-09T14:24:17;98413.25;;;9.71
67515;BMP280;60646;55.802;37.032;2023-10-09T14:26:52;98418.81;;;9.73
67515;BMP280;60646;55.802;37.032;2023-10-09T14:29:22;98433.06;;;9.76
67515;BMP280;60646;55.802;37.032;2023-10-09T14:31:52;98433.06;;;9.76
67515;BMP280;60646;55.802;37.032;2023-10-09T14:34:32;98428.03;;;9.72
67515;BMP280;60646;55.802;37.032;2023-10-09T14:37:02;98437.97;;;9.72
67515;BMP280;60646;55.802;37.032;2023-10-09T14:39:32;98432.63;;;9.72
67515;BMP280;60646;55.802;37.032;2023-10-09T14:42:02;98449.06;;;9.76
67515;BMP280;60646;55.802;37.032;2023-10-09T14:44:36;98433.53;;;9.61
67515;BMP280;60646;55.802;37.032;2023-10-09T14:47:07;98464.56;;;9.77
67515;BMP280;60646;55.802;37.032;2023-10-09T14:49:34;98466.53;;;9.77
67515;BMP280;60646;55.802;37.032;2023-10-09T14:52:12;98467.53;;;9.74
67515;BMP280;60646;55.802;37.032;2023-10-09T14:54:46;98479.41;;;9.73
67515;BMP280;60646;55.802;37.032;2023-10-09T14:57:13;98466.75;;;9.55
67515;BMP280;60646;55.802;37.032;2023-10-09T14:59:46;98486.53;;;9.65
67515;BMP280;60646;55.802;37.032;2023-10-09T15:02:12;98492.06;;;9.67
67515;BMP280;60646;55.802;37.032;2023-10-09T15:04:43;98480.81;;;9.55
67515;BMP280;60646;55.802;37.032;2023-10-09T15:07:11;98467.56;;;9.44
67515;BMP280;60646;55.802;37.032;2023-10-09T15:09:46;98487.34;;;9.54
67515;BMP280;60646;55.802;37.032;2023-10-09T15:12:19;98471.31;;;9.35